Time;durP1;ratioP1;P1;durP2;ratioP2;P2;SDS_P1;SDS_P2;PMS_P1;PMS_P2;Temp;Humidity;BMP_temperature;BMP_pressure;BME280_temperature;BME280_humidity;BME280_pressure;Samples;Min_cycle;Max_cycle;Signal;HPM_P1;HPM_P2
2023/03/08 00:01:00;;;;;;;;;;;;;;;;;;6059715;23;20344;-86
2023/03/08 00:16:54;;;;;;;;;;;;;;;;;;;;;
2023/03/08 00:19:38;;;;;;;;;;;;;;;;;;5938323;24;19937;-84
2023/03/08 00:30:55;;;;;;;;;;;;;;;;;;6232648;23;19919;-84
2023/03/08 00:36:52;;;;;;;;;;;;;;;;;;;;;
2023/03/08 00:39:24;;;;;;;;;;;;;;;;;;6227154;22;19926;-84
2023/03/08 00:41:52;;;;;;;;;;;;;;;;;;6137065;23;19920;-84
2023/03/08 00:44:36;;;;;;;;;;;;;;;;;;6112743;23;19928;-84
2023/03/08 00:47:36;;;;;;;;;;;;;;;;;;;;;
2023/03/08 00:53:26;;;;;;;;;;;;;;;;;;6030602;23;19918;-85
2023/03/08 00:55:59;;;;;;;;;;;;;;;;;;6081298;23;19921;-85
2023/03/08 00:58:43;;;;;;;;;;;;;;;;;;6086589;23;19973;-85
2023/03/08 01:01:21;;;;;;;;;;;;;;;;;;6083732;23;19920;-84
2023/03/08 01:03:52;;;;;;;;;;;;;;;;;;6081352;23;20355;-85
2023/03/08 01:06:21;;;;;;;;;;;;;;;;;;6096003;23;19964;-85
2023/03/08 01:08:50;;;;;;;;;;;;;;;;;;6107674;23;20483;-85
2023/03/08 01:11:19;;;;;;;;;;;;;;;;;;6112681;23;19947;-84
2023/03/08 01:13:51;;;;;;;;;;;;;;;;;;6114740;23;19920;-84
2023/03/08 01:16:17;;;;;;;;;;;;;;;;;;6142132;23;19947;-84
2023/03/08 01:18:45;;;;;;;;;;;;;;;;;;6168410;23;19916;-84
2023/03/08 01:21:27;;;;;;;;;;;;;;;;;;;;;
2023/03/08 01:23:53;;;;;;;;;;;;;;;;;;6202294;23;19942;-84
2023/03/08 01:29:36;;;;;;;;;;;;;;;;;;6236059;23;19998;-85
2023/03/08 01:32:08;;;;;;;;;;;;;;;;;;6202779;23;20390;-85
2023/03/08 01:34:38;;;;;;;;;;;;;;;;;;6174625;23;19920;-84
2023/03/08 01:37:18;;;;;;;;;;;;;;;;;;6174460;23;19927;-84
2023/03/08 01:39:47;;;;;;;;;;;;;;;;;;6176003;23;20029;-84
2023/03/08 01:42:13;;;;;;;;;;;;;;;;;;6199778;23;20354;-84
2023/03/08 01:45:00;;;;;;;;;;;;;;;;;;6174173;23;19920;-84
2023/03/08 01:47:26;;;;;;;;;;;;;;;;;;6200208;23;19943;-84
2023/03/08 01:49:55;;;;;;;;;;;;;;;;;;6174650;23;20348;-84
2023/03/08 01:52:30;;;;;;;;;;;;;;;;;;6175523;23;19926;-84
2023/03/08 01:54:59;;;;;;;;;;;;;;;;;;6177912;23;20323;-84
2023/03/08 01:57:25;;;;;;;;;;;;;;;;;;6175769;23;19926;-84
2023/03/08 01:59:51;;;;;;;;;;;;;;;;;;6176043;23;20429;-84
2023/03/08 02:02:17;;;;;;;;;;;;;;;;;;6200978;23;19969;-84
2023/03/08 02:04:45;;;;;;;;;;;;;;;;;;6202614;23;19986;-85
2023/03/08 02:07:14;;;;;;;;;;;;;;;;;;6203337;23;19924;-84
2023/03/08 02:09:46;;;;;;;;;;;;;;;;;;6199767;23;19987;-83
2023/03/08 02:24:13;;;;;;;;;;;;;;;;;;6114976;23;19931;-86
2023/03/08 02:30:09;;;;;;;;;;;;;;;;;;6136611;23;20349;-87
2023/03/08 02:32:48;;;;;;;;;;;;;;;;;;6140344;23;19928;-87
2023/03/08 02:35:33;;;;;;;;;;;;;;;;;;;;;
2023/03/08 02:41:22;;;;;;;;;;;;;;;;;;6114335;23;19940;-87
2023/03/08 02:43:47;;;;;;;;;;;;;;;;;;6122702;23;20355;-87
2023/03/08 02:49:37;;;;;;;;;;;;;;;;;;6138017;23;19925;-87
2023/03/08 02:58:17;;;;;;;;;;;;;;;;;;6030581;23;20339;-86
2023/03/08 03:00:58;;;;;;;;;;;;;;;;;;6084303;23;19920;-86
2023/03/08 03:03:52;;;;;;;;;;;;;;;;;;;;;
2023/03/08 03:06:39;;;;;;;;;;;;;;;;;;6004745;23;19934;-86
2023/03/08 03:18:05;;;;;;;;;;;;;;;;;;6192222;23;20299;-86
2023/03/08 03:20:34;;;;;;;;;;;;;;;;;;6111001;23;19916;-86
2023/03/08 03:26:13;;;;;;;;;;;;;;;;;;;;;
2023/03/08 03:28:54;;;;;;;;;;;;;;;;;;6112960;23;19921;-87
2023/03/08 03:31:40;;;;;;;;;;;;;;;;;;6112482;23;19928;-86
2023/03/08 03:34:31;;;;;;;;;;;;;;;;;;;;;
2023/03/08 03:37:23;;;;;;;;;;;;;;;;;;;;;
2023/03/08 03:43:14;;;;;;;;;;;;;;;;;;6082113;23;20511;-86
2023/03/08 03:45:45;;;;;;;;;;;;;;;;;;6048170;23;19928;-87
2023/03/08 03:48:23;;;;;;;;;;;;;;;;;;6024819;23;19921;-87
2023/03/08 03:51:02;;;;;;;;;;;;;;;;;;6035738;23;20436;-86
2023/03/08 03:56:42;;;;;;;;;;;;;;;;;;6010926;23;19917;-86
2023/03/08 04:05:38;;;;;;;;;;;;;;;;;;;;;
2023/03/08 04:08:20;;;;;;;;;;;;;;;;;;;;;
2023/03/08 04:13:47;;;;;;;;;;;;;;;;;;6025857;23;19922;-87
2023/03/08 04:16:30;;;;;;;;;;;;;;;;;;6018306;23;20365;-87
2023/03/08 04:22:03;;;;;;;;;;;;;;;;;;6074483;23;20015;-86
2023/03/08 04:24:47;;;;;;;;;;;;;;;;;;6158358;23;20308;-86
2023/03/08 04:27:27;;;;;;;;;;;;;;;;;;;;;
2023/03/08 04:30:02;;;;;;;;;;;;;;;;;;6173743;23;20060;-86
2023/03/08 04:32:43;;;;;;;;;;;;;;;;;;;;;
2023/03/08 04:35:25;;;;;;;;;;;;;;;;;;6141624;23;20293;-86
2023/03/08 04:38:10;;;;;;;;;;;;;;;;;;6112882;23;19924;-86
2023/03/08 04:43:23;;;;;;;;;;;;;;;;;;6140625;23;19924;-86
2023/03/08 04:45:49;;;;;;;;;;;;;;;;;;6116179;23;20323;-86
2023/03/08 04:48:18;;;;;;;;;;;;;;;;;;6143207;23;19920;-86
2023/03/08 04:50:44;;;;;;;;;;;;;;;;;;6114303;23;19927;-86
2023/03/08 04:53:12;;;;;;;;;;;;;;;;;;6142789;23;19920;-86
2023/03/08 04:55:40;;;;;;;;;;;;;;;;;;6141067;23;19931;-86
2023/03/08 04:58:09;;;;;;;;;;;;;;;;;;6117695;23;19995;-86
2023/03/08 05:00:35;;;;;;;;;;;;;;;;;;6113869;23;19917;-87
2023/03/08 05:03:01;;;;;;;;;;;;;;;;;;6158308;23;19920;-86
2023/03/08 05:05:27;;;;;;;;;;;;;;;;;;6172757;23;19926;-86
2023/03/08 05:08:04;;;;;;;;;;;;;;;;;;6147865;23;20288;-87
2023/03/08 05:10:49;;;;;;;;;;;;;;;;;;;;;
2023/03/08 05:16:48;;;;;;;;;;;;;;;;;;;;;
2023/03/08 05:19:23;;;;;;;;;;;;;;;;;;6137334;23;19921;-86
2023/03/08 05:21:51;;;;;;;;;;;;;;;;;;6086966;23;19924;-86
2023/03/08 05:24:38;;;;;;;;;;;;;;;;;;6165318;23;20000;-87
2023/03/08 05:30:23;;;;;;;;;;;;;;;;;;6168983;23;19920;-87
2023/03/08 05:32:58;;;;;;;;;;;;;;;;;;6142789;23;19916;-86
2023/03/08 05:35:39;;;;;;;;;;;;;;;;;;6077131;23;19975;-86
2023/03/08 05:38:18;;;;;;;;;;;;;;;;;;;;;
2023/03/08 05:40:47;;;;;;;;;;;;;;;;;;6170843;23;19916;-86
2023/03/08 05:43:32;;;;;;;;;;;;;;;;;;6123483;23;19923;-86
2023/03/08 05:46:14;;;;;;;;;;;;;;;;;;6118228;23;19991;-86
2023/03/08 05:48:43;;;;;;;;;;;;;;;;;;6118310;23;19995;-86
2023/03/08 05:51:09;;;;;;;;;;;;;;;;;;6147481;23;19920;-86
2023/03/08 05:53:35;;;;;;;;;;;;;;;;;;6175062;23;19916;-85
2023/03/08 05:56:04;;;;;;;;;;;;;;;;;;6177646;23;20010;-86
2023/03/08 05:58:32;;;;;;;;;;;;;;;;;;6174453;23;19923;-86
2023/03/08 06:00:58;;;;;;;;;;;;;;;;;;6186087;23;19924;-86
2023/03/08 06:03:24;;;;;;;;;;;;;;;;;;6182521;23;19938;-86
2023/03/08 06:05:50;;;;;;;;;;;;;;;;;;6182098;23;19923;-86
2023/03/08 06:08:16;;;;;;;;;;;;;;;;;;6207310;23;19943;-85
2023/03/08 06:10:42;;;;;;;;;;;;;;;;;;6181961;23;19938;-86
2023/03/08 06:13:08;;;;;;;;;;;;;;;;;;6183106;23;20407;-86
2023/03/08 06:21:27;;;;;;;;;;;;;;;;;;6204194;23;19935;-86
2023/03/08 06:23:59;;;;;;;;;;;;;;;;;;6203544;23;19926;-86
2023/03/08 06:29:49;;;;;;;;;;;;;;;;;;6143514;23;20453;-86
2023/03/08 06:32:43;;;;;;;;;;;;;;;;;;;;;
2023/03/08 06:38:38;;;;;;;;;;;;;;;;;;;;;
2023/03/08 06:41:35;;;;;;;;;;;;;;;;;;;;;
2023/03/08 06:46:53;;;;;;;;;;;;;;;;;;6195564;23;19923;-86
2023/03/08 06:55:36;;;;;;;;;;;;;;;;;;6199090;23;20275;-85
2023/03/08 07:01:22;;;;;;;;;;;;;;;;;;6241454;23;19926;-85
2023/03/08 07:03:51;;;;;;;;;;;;;;;;;;6201486;23;19958;-86
2023/03/08 07:12:38;;;;;;;;;;;;;;;;;;6222021;23;19926;-86
2023/03/08 07:15:24;;;;;;;;;;;;;;;;;;6228352;23;19923;-85
2023/03/08 07:18:10;;;;;;;;;;;;;;;;;;6182873;23;20244;-85
2023/03/08 07:21:03;;;;;;;;;;;;;;;;;;;;;
2023/03/08 07:24:01;;;;;;;;;;;;;;;;;;6220743;23;19923;-86
2023/03/08 07:26:43;;;;;;;;;;;;;;;;;;6207756;23;20209;-85
2023/03/08 07:29:20;;;;;;;;;;;;;;;;;;6184739;23;19998;-86
2023/03/08 07:34:58;;;;;;;;;;;;;;;;;;6203397;23;20393;-86
2023/03/08 07:37:42;;;;;;;;;;;;;;;;;;6205195;23;20375;-87
2023/03/08 07:43:08;;;;;;;;;;;;;;;;;;6219360;23;20248;-86
2023/03/08 07:48:56;;;;;;;;;;;;;;;;;;;;;
2023/03/08 07:51:30;;;;;;;;;;;;;;;;;;6114263;23;20356;-86
2023/03/08 08:03:25;;;;;;;;;;;;;;;;;;;;;
2023/03/08 08:06:02;;;;;;;;;;;;;;;;;;6053141;23;20022;-87
2023/03/08 08:08:46;;;;;;;;;;;;;;;;;;6002040;23;19925;-86
2023/03/08 08:14:51;;;;;;;;;;;;;;;;;;;;;
2023/03/08 08:17:28;;;;;;;;;;;;;;;;;;6080989;23;19917;-86
2023/03/08 08:20:25;;;;;;;;;;;;;;;;;;;;;
2023/03/08 08:23:05;;;;;;;;;;;;;;;;;;6137234;23;20011;-87
2023/03/08 08:25:47;;;;;;;;;;;;;;;;;;6104667;23;19986;-87
2023/03/08 08:28:50;;;;;;;;;;;;;;;;;;;;;
2023/03/08 08:31:17;;;;;;;;;;;;;;;;;;6082746;23;19948;-87
2023/03/08 08:33:59;;;;;;;;;;;;;;;;;;;;;
2023/03/08 08:43:09;;;;;;;;;;;;;;;;;;6089616;23;19965;-88
2023/03/08 08:48:39;;;;;;;;;;;;;;;;;;6105820;23;19960;-88
2023/03/08 08:51:08;;;;;;;;;;;;;;;;;;6081318;23;19945;-88
2023/03/08 08:53:47;;;;;;;;;;;;;;;;;;6022468;23;19925;-88
2023/03/08 08:56:44;;;;;;;;;;;;;;;;;;;;;
2023/03/08 09:00:13;;;;;;;;;;;;;;;;;;6014451;23;19922;-86
2023/03/08 09:03:19;;;;;;;;;;;;;;;;;;;;;
2023/03/08 09:06:01;;;;;;;;;;;;;;;;;;;;;
2023/03/08 09:08:48;;;;;;;;;;;;;;;;;;5886036;24;19993;-88
2023/03/08 09:14:45;;;;;;;;;;;;;;;;;;;;;
2023/03/08 09:20:14;;;;;;;;;;;;;;;;;;;;;
2023/03/08 09:29:43;;;;;;;;;;;;;;;;;;;;;
2023/03/08 09:35:34;;;;;;;;;;;;;;;;;;6092949;23;19921;-88
2023/03/08 09:41:40;;;;;;;;;;;;;;;;;;6088839;23;19921;-88
2023/03/08 09:44:06;;;;;;;;;;;;;;;;;;6057501;23;20393;-88
2023/03/08 09:46:34;;;;;;;;;;;;;;;;;;6081459;23;19956;-89
2023/03/08 09:49:03;;;;;;;;;;;;;;;;;;6035903;23;19921;-88
2023/03/08 09:51:29;;;;;;;;;;;;;;;;;;6059136;23;20366;-89
2023/03/08 09:53:56;;;;;;;;;;;;;;;;;;6058297;23;20756;-88
2023/03/08 09:56:24;;;;;;;;;;;;;;;;;;6058890;23;19921;-87
2023/03/08 09:58:50;;;;;;;;;;;;;;;;;;6055099;23;20303;-88
2023/03/08 10:01:18;;;;;;;;;;;;;;;;;;6058633;23;19925;-88
2023/03/08 10:03:52;;;;;;;;;;;;;;;;;;6057388;23;20231;-88
2023/03/08 10:06:18;;;;;;;;;;;;;;;;;;6074330;23;20392;-88
2023/03/08 10:08:49;;;;;;;;;;;;;;;;;;6103653;23;19917;-87
2023/03/08 10:11:15;;;;;;;;;;;;;;;;;;6086741;23;20424;-88
2023/03/08 10:13:49;;;;;;;;;;;;;;;;;;6084880;23;19928;-88
2023/03/08 10:16:15;;;;;;;;;;;;;;;;;;6174366;23;19916;-88
2023/03/08 10:18:44;;;;;;;;;;;;;;;;;;6176231;23;20247;-88
2023/03/08 10:21:23;;;;;;;;;;;;;;;;;;;;;
2023/03/08 10:23:56;;;;;;;;;;;;;;;;;;6179340;23;19930;-88
2023/03/08 10:26:44;;;;;;;;;;;;;;;;;;6182828;23;20252;-88
2023/03/08 10:29:08;;;;;;;;;;;;;;;;;;6207560;23;19957;-87
2023/03/08 10:31:34;;;;;;;;;;;;;;;;;;6182381;23;20233;-88
2023/03/08 10:43:27;;;;;;;;;;;;;;;;;;;;;
2023/03/08 10:54:59;;;;;;;;;;;;;;;;;;6198658;23;19919;-84
2023/03/08 10:57:46;;;;;;;;;;;;;;;;;;;;;
2023/03/08 11:00:32;;;;;;;;;;;;;;;;;;6243554;23;20491;-84
2023/03/08 11:03:07;;;;;;;;;;;;;;;;;;6206614;23;19919;-84
2023/03/08 11:05:34;;;;;;;;;;;;;;;;;;6179366;23;19915;-84
2023/03/08 11:08:06;;;;;;;;;;;;;;;;;;6176601;23;20309;-85
2023/03/08 11:10:42;;;;;;;;;;;;;;;;;;6136411;23;19921;-85
2023/03/08 11:16:24;;;;;;;;;;;;;;;;;;6067599;23;20305;-84
2023/03/08 11:19:11;;;;;;;;;;;;;;;;;;6055069;23;19945;-85
2023/03/08 11:21:55;;;;;;;;;;;;;;;;;;6077571;23;19927;-85
2023/03/08 11:24:36;;;;;;;;;;;;;;;;;;6079831;23;19932;-84
2023/03/08 11:27:14;;;;;;;;;;;;;;;;;;6056829;23;19940;-84
2023/03/08 11:35:19;;;;;;;;;;;;;;;;;;6047930;23;19925;-84
2023/03/08 11:37:53;;;;;;;;;;;;;;;;;;6083126;23;19928;-84
2023/03/08 11:40:32;;;;;;;;;;;;;;;;;;;;;
2023/03/08 11:43:01;;;;;;;;;;;;;;;;;;6147633;23;19920;-84
2023/03/08 11:45:43;;;;;;;;;;;;;;;;;;6149247;23;20420;-84
2023/03/08 11:48:20;;;;;;;;;;;;;;;;;;;;;
2023/03/08 11:50:58;;;;;;;;;;;;;;;;;;6176884;23;19916;-84
2023/03/08 11:53:28;;;;;;;;;;;;;;;;;;6178801;23;19923;-84
2023/03/08 11:56:25;;;;;;;;;;;;;;;;;;6180532;23;20417;-84
2023/03/08 12:02:16;;;;;;;;;;;;;;;;;;6200659;23;19924;-84
2023/03/08 12:07:43;;;;;;;;;;;;;;;;;;6200884;23;19934;-84
2023/03/08 12:10:18;;;;;;;;;;;;;;;;;;6173986;23;19915;-84
2023/03/08 12:12:53;;;;;;;;;;;;;;;;;;6188875;23;19956;-84
2023/03/08 12:15:29;;;;;;;;;;;;;;;;;;6174092;23;19920;-84
2023/03/08 12:18:08;;;;;;;;;;;;;;;;;;;;;
2023/03/08 12:20:50;;;;;;;;;;;;;;;;;;;;;
2023/03/08 12:23:27;;;;;;;;;;;;;;;;;;6195726;23;19995;-84
2023/03/08 12:29:18;;;;;;;;;;;;;;;;;;6138719;23;20353;-84
2023/03/08 12:31:53;;;;;;;;;;;;;;;;;;6113576;23;19924;-84
2023/03/08 12:37:16;;;;;;;;;;;;;;;;;;6161769;23;20305;-84
2023/03/08 12:40:10;;;;;;;;;;;;;;;;;;;;;
2023/03/08 12:42:56;;;;;;;;;;;;;;;;;;;;;
2023/03/08 12:45:39;;;;;;;;;;;;;;;;;;6164232;23;20004;-84
2023/03/08 12:48:14;;;;;;;;;;;;;;;;;;6160713;23;20330;-84
2023/03/08 12:50:59;;;;;;;;;;;;;;;;;;;;;
2023/03/08 14:04:19;;;;;;;;;;;;;;;;;;6239171;22;19923;-84
2023/03/08 14:07:10;;;;;;;;;;;;;;;;;;6110398;23;19925;-84
2023/03/08 14:16:45;;;;;;;;;;;;;;;;;;6114521;23;19983;-85
2023/03/08 14:22:24;;;;;;;;;;;;;;;;;;6221897;22;19946;-85
2023/03/08 20:15:48;;;;;;;;;;;;;;;;;;6213552;22;19923;-84
2023/03/08 20:25:16;;;;;;;;;;;;;;;;;;;;;
2023/03/08 20:28:03;;;;;;;;;;;;;;;;;;6027789;23;20045;-84
2023/03/08 20:46:04;;;;;;;;;;;;;;;;;;6243879;22;20939;-89
2023/03/08 20:48:30;;;;;;;;;;;;;;;;;;6202846;23;19927;-89
2023/03/08 20:50:59;;;;;;;;;;;;;;;;;;6175634;23;20280;-89
2023/03/08 20:53:25;;;;;;;;;;;;;;;;;;6202128;23;20010;-89
2023/03/08 20:55:51;;;;;;;;;;;;;;;;;;6176395;23;20324;-89
2023/03/08 20:58:17;;;;;;;;;;;;;;;;;;6182254;23;19922;-88
2023/03/08 21:00:43;;;;;;;;;;;;;;;;;;6177050;23;20226;-89
2023/03/08 21:03:09;;;;;;;;;;;;;;;;;;6229673;23;20254;-88
2023/03/08 21:05:35;;;;;;;;;;;;;;;;;;6201733;23;19920;-88
2023/03/08 21:08:01;;;;;;;;;;;;;;;;;;6182241;23;19926;-89
2023/03/08 21:10:27;;;;;;;;;;;;;;;;;;6231060;23;20348;-89
2023/03/08 21:12:53;;;;;;;;;;;;;;;;;;6177332;23;19919;-89
2023/03/08 21:15:19;;;;;;;;;;;;;;;;;;6203136;23;19922;-89
2023/03/08 21:17:45;;;;;;;;;;;;;;;;;;6200729;23;19919;-88
2023/03/08 21:20:14;;;;;;;;;;;;;;;;;;6179597;23;19969;-88
2023/03/08 21:22:40;;;;;;;;;;;;;;;;;;6175367;23;20357;-89
2023/03/08 21:25:06;;;;;;;;;;;;;;;;;;6199358;23;19919;-89
2023/03/08 21:27:32;;;;;;;;;;;;;;;;;;6201391;23;19920;-89
2023/03/08 21:29:59;;;;;;;;;;;;;;;;;;6179520;23;20389;-89
2023/03/08 21:32:25;;;;;;;;;;;;;;;;;;6177138;23;19924;-89
2023/03/08 21:34:52;;;;;;;;;;;;;;;;;;6174103;23;19990;-89
2023/03/08 21:37:18;;;;;;;;;;;;;;;;;;6226801;23;19920;-89
2023/03/08 21:39:44;;;;;;;;;;;;;;;;;;6172037;23;20391;-89
2023/03/08 21:42:10;;;;;;;;;;;;;;;;;;6175854;23;19981;-89
2023/03/08 21:44:35;;;;;;;;;;;;;;;;;;6174031;23;20256;-89
2023/03/08 21:47:01;;;;;;;;;;;;;;;;;;6202689;23;19990;-88
2023/03/08 21:49:27;;;;;;;;;;;;;;;;;;6178042;23;19919;-89
2023/03/08 21:51:53;;;;;;;;;;;;;;;;;;6203412;23;19955;-89
2023/03/08 21:54:19;;;;;;;;;;;;;;;;;;6180052;23;19915;-89
2023/03/08 21:56:46;;;;;;;;;;;;;;;;;;6178828;23;19924;-89
2023/03/08 21:59:12;;;;;;;;;;;;;;;;;;6178155;23;19915;-90
2023/03/08 22:01:38;;;;;;;;;;;;;;;;;;6198145;23;19919;-90
2023/03/08 22:04:04;;;;;;;;;;;;;;;;;;6179839;23;19919;-89
2023/03/08 22:06:30;;;;;;;;;;;;;;;;;;6179623;23;20003;-89
2023/03/08 22:08:56;;;;;;;;;;;;;;;;;;6178494;23;20317;-89
2023/03/08 22:11:22;;;;;;;;;;;;;;;;;;6179341;23;19919;-89
2023/03/08 22:13:48;;;;;;;;;;;;;;;;;;6203199;23;20251;-89
2023/03/08 22:16:14;;;;;;;;;;;;;;;;;;6179663;23;20062;-89
2023/03/08 22:18:40;;;;;;;;;;;;;;;;;;6177381;23;19947;-89
2023/03/08 22:21:06;;;;;;;;;;;;;;;;;;6180314;23;19974;-89
2023/03/08 22:23:32;;;;;;;;;;;;;;;;;;6204605;23;19926;-89
2023/03/08 22:25:58;;;;;;;;;;;;;;;;;;6182076;23;20421;-89
2023/03/08 22:28:24;;;;;;;;;;;;;;;;;;6182109;23;19962;-88
2023/03/08 22:30:50;;;;;;;;;;;;;;;;;;6182083;23;20026;-89
2023/03/08 22:33:16;;;;;;;;;;;;;;;;;;6182164;23;19931;-88
2023/03/08 22:35:42;;;;;;;;;;;;;;;;;;6181278;23;19942;-89
2023/03/08 22:38:08;;;;;;;;;;;;;;;;;;6184204;23;19919;-88
2023/03/08 22:40:37;;;;;;;;;;;;;;;;;;6205751;23;19927;-88
2023/03/08 22:43:03;;;;;;;;;;;;;;;;;;6183357;23;19915;-88
2023/03/08 22:45:29;;;;;;;;;;;;;;;;;;6206621;23;19995;-89
2023/03/08 22:47:55;;;;;;;;;;;;;;;;;;6178073;23;19923;-89
2023/03/08 22:50:20;;;;;;;;;;;;;;;;;;6178421;23;19920;-89
2023/03/08 22:52:46;;;;;;;;;;;;;;;;;;6177284;23;19927;-89
2023/03/08 22:55:12;;;;;;;;;;;;;;;;;;6179994;23;20345;-89
2023/03/08 22:57:38;;;;;;;;;;;;;;;;;;6178000;23;19935;-89
2023/03/08 23:00:06;;;;;;;;;;;;;;;;;;6177940;23;19920;-89
2023/03/08 23:02:32;;;;;;;;;;;;;;;;;;6234598;23;19920;-88
2023/03/08 23:04:58;;;;;;;;;;;;;;;;;;6232684;23;19942;-88
2023/03/08 23:07:24;;;;;;;;;;;;;;;;;;6210115;23;19920;-88
2023/03/08 23:09:52;;;;;;;;;;;;;;;;;;6184168;23;19920;-88
2023/03/08 23:12:18;;;;;;;;;;;;;;;;;;6211072;23;20252;-88
2023/03/08 23:14:44;;;;;;;;;;;;;;;;;;6182973;23;19916;-88
2023/03/08 23:17:09;;;;;;;;;;;;;;;;;;6184147;23;19986;-89
2023/03/08 23:19:35;;;;;;;;;;;;;;;;;;6205979;23;19927;-89
2023/03/08 23:22:02;;;;;;;;;;;;;;;;;;6184066;23;20371;-89
2023/03/08 23:24:28;;;;;;;;;;;;;;;;;;6183686;23;19924;-88
2023/03/08 23:27:00;;;;;;;;;;;;;;;;;;6181853;23;20336;-89
2023/03/08 23:29:26;;;;;;;;;;;;;;;;;;6209138;23;19919;-89
2023/03/08 23:31:52;;;;;;;;;;;;;;;;;;6182735;23;20315;-89
2023/03/08 23:34:18;;;;;;;;;;;;;;;;;;6183397;23;20307;-88
2023/03/08 23:36:44;;;;;;;;;;;;;;;;;;6183490;23;20018;-89
2023/03/08 23:39:10;;;;;;;;;;;;;;;;;;6207776;23;19919;-89
2023/03/08 23:41:36;;;;;;;;;;;;;;;;;;6182053;23;19919;-89
2023/03/08 23:44:02;;;;;;;;;;;;;;;;;;6182765;23;20298;-89
2023/03/08 23:46:28;;;;;;;;;;;;;;;;;;6233564;23;19994;-89
2023/03/08 23:48:54;;;;;;;;;;;;;;;;;;6181706;23;19957;-88
2023/03/08 23:51:20;;;;;;;;;;;;;;;;;;6236847;23;20351;-88
2023/03/08 23:53:46;;;;;;;;;;;;;;;;;;6208599;23;20020;-89
2023/03/08 23:56:12;;;;;;;;;;;;;;;;;;6184097;23;19919;-88
2023/03/08 23:58:38;;;;;;;;;;;;;;;;;;6179191;23;19919;-89
